Terminal Aerodrome Forecast
Issued by NWS

Home | Current Version | Previous Version | Text Only | Print | Product List | Glossary On
Versions: 1 2 3 4 5 6 7 8 9 10 11 12 13 14 15 16 17 18 19 20 21 22
000
FTUS43 KPAH 131700
TAFOWB
TAF
KOWB 131738Z 1318/1418 21012KT P6SM SCT050 SCT100
     FM132300 23008KT P6SM VCSH SCT050 BKN100
     FM140300 23006KT 4SM -SHRA BKN040 OVC100 PROB30 1406/1412 2SM
      TSRA BKN030CB
     FM141200 25004KT P6SM SCT100=

USA.gov is the U.S. government's official web portal to all federal, state and local government web resources and services.